sensor_id;sensor_type;location;lat;lon;timestamp;pressure;altitude;pressure_sealevel;temperature;humidity
62600;BME280;48671;48.922;2.346;2023-04-08T00:00:47;102050.22;;;11.12;54.91
62600;BME280;48671;48.922;2.346;2023-04-08T00:03:16;102060.59;;;11.14;54.81
62600;BME280;48671;48.922;2.346;2023-04-08T00:05:41;102048.69;;;11.02;54.74
62600;BME280;48671;48.922;2.346;2023-04-08T00:08:07;102061.63;;;11.05;55.52
62600;BME280;48671;48.922;2.346;2023-04-08T00:10:32;102072.13;;;11.00;55.64
62600;BME280;48671;48.922;2.346;2023-04-08T00:12:58;102044.66;;;10.86;55.07
62600;BME280;48671;48.922;2.346;2023-04-08T00:15:25;102048.94;;;10.88;55.77
62600;BME280;48671;48.922;2.346;2023-04-08T00:17:51;102069.66;;;10.94;55.80
62600;BME280;48671;48.922;2.346;2023-04-08T00:20:19;102055.09;;;10.84;55.60
62600;BME280;48671;48.922;2.346;2023-04-08T00:22:44;102036.28;;;10.70;55.69
62600;BME280;48671;48.922;2.346;2023-04-08T00:25:11;102047.59;;;10.67;55.81
62600;BME280;48671;48.922;2.346;2023-04-08T00:27:36;102061.25;;;10.80;56.09
62600;BME280;48671;48.922;2.346;2023-04-08T00:30:02;102066.56;;;10.74;56.46
62600;BME280;48671;48.922;2.346;2023-04-08T00:32:28;102051.09;;;10.65;56.63
62600;BME280;48671;48.922;2.346;2023-04-08T00:34:54;102045.13;;;10.60;56.46
62600;BME280;48671;48.922;2.346;2023-04-08T00:37:20;102039.91;;;10.60;56.41
62600;BME280;48671;48.922;2.346;2023-04-08T00:39:45;102055.41;;;10.66;56.22
62600;BME280;48671;48.922;2.346;2023-04-08T00:42:11;102043.53;;;10.51;56.18
62600;BME280;48671;48.922;2.346;2023-04-08T00:44:37;102074.56;;;10.62;56.22
62600;BME280;48671;48.922;2.346;2023-04-08T00:47:03;102072.81;;;10.62;56.61
62600;BME280;48671;48.922;2.346;2023-04-08T00:49:30;102054.84;;;10.50;56.43
62600;BME280;48671;48.922;2.346;2023-04-08T00:51:58;102060.81;;;10.55;56.66
62600;BME280;48671;48.922;2.346;2023-04-08T00:54:24;102048.88;;;10.42;56.65
62600;BME280;48671;48.922;2.346;2023-04-08T00:56:49;102053.28;;;10.38;57.06
62600;BME280;48671;48.922;2.346;2023-04-08T00:59:16;102059.44;;;10.32;57.05
62600;BME280;48671;48.922;2.346;2023-04-08T01:01:50;102057.69;;;10.35;56.82
62600;BME280;48671;48.922;2.346;2023-04-08T01:04:32;102081.75;;;10.46;56.98
62600;BME280;48671;48.922;2.346;2023-04-08T01:07:33;102070.53;;;10.44;56.97
62600;BME280;48671;48.922;2.346;2023-04-08T01:10:06;102060.38;;;10.30;57.20
62600;BME280;48671;48.922;2.346;2023-04-08T01:12:42;102056.88;;;10.31;57.09
62600;BME280;48671;48.922;2.346;2023-04-08T01:15:10;102066.44;;;10.30;57.20
62600;BME280;48671;48.922;2.346;2023-04-08T01:17:37;102056.09;;;10.23;57.37
62600;BME280;48671;48.922;2.346;2023-04-08T01:20:06;102068.19;;;10.28;57.25
62600;BME280;48671;48.922;2.346;2023-04-08T01:25:34;102055.28;;;10.21;57.25
62600;BME280;48671;48.922;2.346;2023-04-08T01:28:05;102070.78;;;10.25;57.30
62600;BME280;48671;48.922;2.346;2023-04-08T01:30:33;102064.81;;;10.20;57.34
62600;BME280;48671;48.922;2.346;2023-04-08T01:33:01;102086.31;;;10.33;57.48
62600;BME280;48671;48.922;2.346;2023-04-08T01:35:29;102066.50;;;10.24;57.54
62600;BME280;48671;48.922;2.346;2023-04-08T01:37:56;102055.28;;;10.21;57.40
62600;BME280;48671;48.922;2.346;2023-04-08T01:40:22;102051.75;;;10.23;57.17
62600;BME280;48671;48.922;2.346;2023-04-08T01:42:48;102054.34;;;10.25;57.28
62600;BME280;48671;48.922;2.346;2023-04-08T01:45:15;102079.31;;;10.38;57.38
62600;BME280;48671;48.922;2.346;2023-04-08T01:47:44;102081.88;;;10.40;57.31
62600;BME280;48671;48.922;2.346;2023-04-08T01:50:11;102058.69;;;10.24;57.56
62600;BME280;48671;48.922;2.346;2023-04-08T01:52:39;102067.34;;;10.23;57.29
62600;BME280;48671;48.922;2.346;2023-04-08T01:55:06;102082.88;;;10.31;57.39
62600;BME280;48671;48.922;2.346;2023-04-08T01:57:36;102086.38;;;10.30;57.20
62600;BME280;48671;48.922;2.346;2023-04-08T02:00:06;102056.31;;;10.11;57.09
62600;BME280;48671;48.922;2.346;2023-04-08T02:02:35;102059.00;;;10.04;57.34
62600;BME280;48671;48.922;2.346;2023-04-08T02:05:02;102053.78;;;10.03;57.41
62600;BME280;48671;48.922;2.346;2023-04-08T02:07:28;102080.47;;;10.16;57.53
62600;BME280;48671;48.922;2.346;2023-04-08T02:09:55;102078.78;;;10.13;57.72
62600;BME280;48671;48.922;2.346;2023-04-08T02:12:22;102057.38;;;9.97;57.91
62600;BME280;48671;48.922;2.346;2023-04-08T02:14:47;102061.69;;;9.97;57.76
62600;BME280;48671;48.922;2.346;2023-04-08T02:17:24;102064.25;;;10.00;57.98
62600;BME280;48671;48.922;2.346;2023-04-08T02:20:04;102056.72;;;9.81;57.73
62600;BME280;48671;48.922;2.346;2023-04-08T02:22:38;102071.47;;;9.81;58.14
62600;BME280;48671;48.922;2.346;2023-04-08T02:25:07;102063.75;;;9.75;57.92
62600;BME280;48671;48.922;2.346;2023-04-08T02:27:36;102060.25;;;9.76;58.39
62600;BME280;48671;48.922;2.346;2023-04-08T02:30:05;102070.56;;;9.82;58.22
62600;BME280;48671;48.922;2.346;2023-04-08T02:32:32;102078.38;;;9.82;58.10
62600;BME280;48671;48.922;2.346;2023-04-08T02:35:00;102063.78;;;9.70;58.62
62600;BME280;48671;48.922;2.346;2023-04-08T02:37:32;102066.47;;;9.66;58.48
62600;BME280;48671;48.922;2.346;2023-04-08T02:40:00;102065.63;;;9.65;58.41
62600;BME280;48671;48.922;2.346;2023-04-08T02:42:26;102067.38;;;9.63;58.45
62600;BME280;48671;48.922;2.346;2023-04-08T02:44:52;102064.81;;;9.60;58.66
62600;BME280;48671;48.922;2.346;2023-04-08T02:47:17;102075.97;;;9.67;58.58
62600;BME280;48671;48.922;2.346;2023-04-08T02:49:42;102083.72;;;9.70;58.36
62600;BME280;48671;48.922;2.346;2023-04-08T02:52:08;102067.41;;;9.60;58.79
62600;BME280;48671;48.922;2.346;2023-04-08T02:54:33;102077.75;;;9.65;58.35
62600;BME280;48671;48.922;2.346;2023-04-08T02:56:59;102071.75;;;9.58;58.63
62600;BME280;48671;48.922;2.346;2023-04-08T02:59:24;102084.66;;;9.66;58.32
62600;BME280;48671;48.922;2.346;2023-04-08T03:01:50;102083.84;;;9.60;58.63
62600;BME280;48671;48.922;2.346;2023-04-08T03:04:15;102082.13;;;9.58;57.99
62600;BME280;48671;48.922;2.346;2023-04-08T03:06:40;102074.53;;;9.46;58.63
62600;BME280;48671;48.922;2.346;2023-04-08T03:09:06;102082.34;;;9.41;58.69
62600;BME280;48671;48.922;2.346;2023-04-08T03:11:32;102080.72;;;9.35;58.97
62600;BME280;48671;48.922;2.346;2023-04-08T03:13:57;102078.97;;;9.36;58.93
62600;BME280;48671;48.922;2.346;2023-04-08T03:16:22;102081.53;;;9.39;59.09
62600;BME280;48671;48.922;2.346;2023-04-08T03:18:51;102075.41;;;9.42;58.89
62600;BME280;48671;48.922;2.346;2023-04-08T03:21:16;102085.81;;;9.43;58.76
62600;BME280;48671;48.922;2.346;2023-04-08T03:23:42;102082.38;;;9.40;58.69
62600;BME280;48671;48.922;2.346;2023-04-08T03:26:07;102089.38;;;9.31;58.99
62600;BME280;48671;48.922;2.346;2023-04-08T03:28:33;102082.59;;;9.23;59.17
62600;BME280;48671;48.922;2.346;2023-04-08T03:30:58;102088.59;;;9.26;59.36
62600;BME280;48671;48.922;2.346;2023-04-08T03:33:25;102086.06;;;9.19;59.03
62600;BME280;48671;48.922;2.346;2023-04-08T03:35:50;102074.03;;;9.11;59.21
62600;BME280;48671;48.922;2.346;2023-04-08T03:38:15;102081.72;;;9.22;59.46
62600;BME280;48671;48.922;2.346;2023-04-08T03:40:41;102086.06;;;9.19;59.29
62600;BME280;48671;48.922;2.346;2023-04-08T03:43:06;102077.44;;;9.17;59.31
62600;BME280;48671;48.922;2.346;2023-04-08T03:45:32;102085.19;;;9.21;59.50
62600;BME280;48671;48.922;2.346;2023-04-08T03:47:58;102080.03;;;9.18;59.28
62600;BME280;48671;48.922;2.346;2023-04-08T03:50:23;102082.69;;;9.13;59.37
62600;BME280;48671;48.922;2.346;2023-04-08T03:52:48;102096.50;;;9.14;59.20
62600;BME280;48671;48.922;2.346;2023-04-08T03:55:14;102093.06;;;9.12;59.63
62600;BME280;48671;48.922;2.346;2023-04-08T03:57:39;102090.47;;;9.12;59.00
62600;BME280;48671;48.922;2.346;2023-04-08T04:00:05;102099.19;;;9.09;59.46
62600;BME280;48671;48.922;2.346;2023-04-08T04:02:31;102091.44;;;9.03;59.44
62600;BME280;48671;48.922;2.346;2023-04-08T04:04:59;102072.50;;;8.92;59.39
62600;BME280;48671;48.922;2.346;2023-04-08T04:07:24;102078.56;;;8.93;59.20
62600;BME280;48671;48.922;2.346;2023-04-08T04:09:50;102100.16;;;8.99;59.53
62600;BME280;48671;48.922;2.346;2023-04-08T04:12:18;102078.59;;;8.89;59.31
62600;BME280;48671;48.922;2.346;2023-04-08T04:14:43;102089.78;;;8.95;59.22
62600;BME280;48671;48.922;2.346;2023-04-08T04:17:09;102077.81;;;8.83;59.55
62600;BME280;48671;48.922;2.346;2023-04-08T04:19:34;102092.41;;;8.91;59.74
62600;BME280;48671;48.922;2.346;2023-04-08T04:22:01;102092.34;;;8.98;59.41
62600;BME280;48671;48.922;2.346;2023-04-08T04:24:26;102071.78;;;8.78;59.49
62600;BME280;48671;48.922;2.346;2023-04-08T04:26:52;102096.69;;;8.96;59.50
62600;BME280;48671;48.922;2.346;2023-04-08T04:29:17;102075.25;;;8.78;59.49
62600;BME280;48671;48.922;2.346;2023-04-08T04:31:43;102088.22;;;8.78;59.63
62600;BME280;48671;48.922;2.346;2023-04-08T04:34:08;102083.06;;;8.75;59.64
62600;BME280;48671;48.922;2.346;2023-04-08T04:36:33;102085.66;;;8.75;59.69
62600;BME280;48671;48.922;2.346;2023-04-08T04:39:00;102105.44;;;8.85;59.47
62600;BME280;48671;48.922;2.346;2023-04-08T04:41:25;102087.38;;;8.75;59.86
62600;BME280;48671;48.922;2.346;2023-04-08T04:43:51;102093.47;;;8.69;59.71
62600;BME280;48671;48.922;2.346;2023-04-08T04:46:17;102097.88;;;8.62;59.45
62600;BME280;48671;48.922;2.346;2023-04-08T04:48:42;102095.31;;;8.56;59.77
62600;BME280;48671;48.922;2.346;2023-04-08T04:51:08;102105.66;;;8.62;59.97
62600;BME280;48671;48.922;2.346;2023-04-08T04:53:33;102110.78;;;8.68;60.05
62600;BME280;48671;48.922;2.346;2023-04-08T04:55:59;102113.38;;;8.72;59.86
62600;BME280;48671;48.922;2.346;2023-04-08T04:58:28;102129.84;;;8.66;59.97
62600;BME280;48671;48.922;2.346;2023-04-08T05:00:55;102134.19;;;8.64;60.19
62600;BME280;48671;48.922;2.346;2023-04-08T05:03:20;102133.34;;;8.62;59.69
62600;BME280;48671;48.922;2.346;2023-04-08T05:05:52;102119.59;;;8.51;59.81
62600;BME280;48671;48.922;2.346;2023-04-08T05:08:18;102132.53;;;8.55;59.56
62600;BME280;48671;48.922;2.346;2023-04-08T05:10:44;102126.47;;;8.53;60.12
62600;BME280;48671;48.922;2.346;2023-04-08T05:13:09;102132.53;;;8.54;60.37
62600;BME280;48671;48.922;2.346;2023-04-08T05:15:34;102145.44;;;8.61;59.97
62600;BME280;48671;48.922;2.346;2023-04-08T05:18:00;102135.13;;;8.55;60.04
62600;BME280;48671;48.922;2.346;2023-04-08T05:20:25;102123.94;;;8.50;60.10
62600;BME280;48671;48.922;2.346;2023-04-08T05:22:50;102145.50;;;8.55;60.35
62600;BME280;48671;48.922;2.346;2023-04-08T05:25:16;102129.13;;;8.46;60.38
62600;BME280;48671;48.922;2.346;2023-04-08T05:27:41;102120.53;;;8.40;60.08
62600;BME280;48671;48.922;2.346;2023-04-08T05:30:07;102141.22;;;8.48;60.03
62600;BME280;48671;48.922;2.346;2023-04-08T05:32:33;102142.97;;;8.43;60.08
62600;BME280;48671;48.922;2.346;2023-04-08T05:35:02;102153.28;;;8.52;60.27
62600;BME280;48671;48.922;2.346;2023-04-08T05:37:27;102148.16;;;8.48;60.31
62600;BME280;48671;48.922;2.346;2023-04-08T05:39:53;102143.88;;;8.37;60.06
62600;BME280;48671;48.922;2.346;2023-04-08T05:42:19;102167.16;;;8.47;60.10
62600;BME280;48671;48.922;2.346;2023-04-08T05:44:44;102172.31;;;8.54;60.14
62600;BME280;48671;48.922;2.346;2023-04-08T05:47:09;102182.72;;;8.51;60.53
62600;BME280;48671;48.922;2.346;2023-04-08T05:49:35;102156.84;;;8.39;60.32
62600;BME280;48671;48.922;2.346;2023-04-08T05:52:01;102147.28;;;8.47;60.62
62600;BME280;48671;48.922;2.346;2023-04-08T05:59:39;102156.69;;;8.59;60.16
62600;BME280;48671;48.922;2.346;2023-04-08T06:38:25;102179.78;;;8.93;60.04
62600;BME280;48671;48.922;2.346;2023-04-08T06:40:53;102219.44;;;9.13;59.86
62600;BME280;48671;48.922;2.346;2023-04-08T06:56:14;102237.47;;;9.30;59.39
62600;BME280;48671;48.922;2.346;2023-04-08T06:58:40;102209.00;;;9.18;59.51
62600;BME280;48671;48.922;2.346;2023-04-08T07:01:05;102239.13;;;9.38;59.45
62600;BME280;48671;48.922;2.346;2023-04-08T07:03:30;102234.72;;;9.45;59.27
62600;BME280;48671;48.922;2.346;2023-04-08T07:05:56;102244.06;;;9.63;59.01
62600;BME280;48671;48.922;2.346;2023-04-08T07:08:21;102226.75;;;9.60;58.91
62600;BME280;48671;48.922;2.346;2023-04-08T07:10:47;102241.31;;;9.78;58.78
62600;BME280;48671;48.922;2.346;2023-04-08T07:13:13;102230.06;;;9.76;58.43
62600;BME280;48671;48.922;2.346;2023-04-08T07:15:39;102223.09;;;9.80;58.29
62600;BME280;48671;48.922;2.346;2023-04-08T07:18:05;102224.84;;;9.79;57.97
62600;BME280;48671;48.922;2.346;2023-04-08T07:20:31;102260.94;;;10.05;58.33
62600;BME280;48671;48.922;2.346;2023-04-08T07:22:56;102251.41;;;10.03;58.27
62600;BME280;48671;48.922;2.346;2023-04-08T07:25:21;102250.47;;;10.10;57.71
62600;BME280;48671;48.922;2.346;2023-04-08T07:27:47;102245.22;;;10.13;57.85
62600;BME280;48671;48.922;2.346;2023-04-08T07:30:12;102240.06;;;10.12;57.67
62600;BME280;48671;48.922;2.346;2023-04-08T07:32:38;102253.78;;;10.23;57.89
62600;BME280;48671;48.922;2.346;2023-04-08T07:35:04;102252.03;;;10.25;57.57
62600;BME280;48671;48.922;2.346;2023-04-08T07:37:30;102259.72;;;10.37;57.53
62600;BME280;48671;48.922;2.346;2023-04-08T07:39:55;102264.72;;;10.49;57.49
62600;BME280;48671;48.922;2.346;2023-04-08T07:42:20;102246.50;;;10.49;56.99
62600;BME280;48671;48.922;2.346;2023-04-08T07:44:46;102249.00;;;10.59;57.02
62600;BME280;48671;48.922;2.346;2023-04-08T07:47:11;102258.47;;;10.64;56.67
62600;BME280;48671;48.922;2.346;2023-04-08T07:49:37;102254.94;;;10.68;56.43
62600;BME280;48671;48.922;2.346;2023-04-08T07:52:03;102259.13;;;10.78;56.69
62600;BME280;48671;48.922;2.346;2023-04-08T07:54:32;102267.59;;;10.91;56.23
62600;BME280;48671;48.922;2.346;2023-04-08T07:57:01;102260.59;;;10.95;56.15
62600;BME280;48671;48.922;2.346;2023-04-08T07:59:28;102277.88;;;11.02;55.77
62600;BME280;48671;48.922;2.346;2023-04-08T08:01:53;102275.19;;;11.07;55.69
62600;BME280;48671;48.922;2.346;2023-04-08T08:04:19;102274.00;;;11.24;55.70
62600;BME280;48671;48.922;2.346;2023-04-08T08:06:45;102274.94;;;11.71;55.43
62600;BME280;48671;48.922;2.346;2023-04-08T08:09:11;102260.78;;;12.30;53.33
62600;BME280;48671;48.922;2.346;2023-04-08T08:11:37;102271.53;;;12.94;52.80
62600;BME280;48671;48.922;2.346;2023-04-08T08:14:02;102272.56;;;13.58;51.98
62600;BME280;48671;48.922;2.346;2023-04-08T08:16:29;102278.00;;;14.14;50.33
62600;BME280;48671;48.922;2.346;2023-04-08T08:18:55;102263.31;;;14.40;48.75
62600;BME280;48671;48.922;2.346;2023-04-08T08:21:20;102277.22;;;14.71;48.14
62600;BME280;48671;48.922;2.346;2023-04-08T08:23:45;102278.28;;;14.92;47.66
62600;BME280;48671;48.922;2.346;2023-04-08T08:26:11;102265.94;;;14.96;47.69
62600;BME280;48671;48.922;2.346;2023-04-08T08:28:37;102269.97;;;15.06;46.17
62600;BME280;48671;48.922;2.346;2023-04-08T08:31:02;102266.50;;;15.06;44.98
62600;BME280;48671;48.922;2.346;2023-04-08T08:33:30;102275.13;;;15.09;46.00
62600;BME280;48671;48.922;2.346;2023-04-08T08:35:55;102266.41;;;15.09;46.39
62600;BME280;48671;48.922;2.346;2023-04-08T08:38:22;102274.84;;;15.17;46.31
62600;BME280;48671;48.922;2.346;2023-04-08T08:40:53;102289.81;;;15.15;46.29
62600;BME280;48671;48.922;2.346;2023-04-08T08:43:18;102282.06;;;15.10;46.69
62600;BME280;48671;48.922;2.346;2023-04-08T08:45:44;102287.63;;;15.01;45.71
62600;BME280;48671;48.922;2.346;2023-04-08T08:48:09;102282.78;;;14.89;46.20
62600;BME280;48671;48.922;2.346;2023-04-08T08:50:35;102284.72;;;14.82;47.08
62600;BME280;48671;48.922;2.346;2023-04-08T08:53:00;102283.97;;;14.79;46.42
62600;BME280;48671;48.922;2.346;2023-04-08T08:55:29;102275.19;;;14.80;46.81
62600;BME280;48671;48.922;2.346;2023-04-08T08:57:55;102289.31;;;14.75;47.40
62600;BME280;48671;48.922;2.346;2023-04-08T09:00:33;102278.94;;;14.71;46.48
62600;BME280;48671;48.922;2.346;2023-04-08T09:03:24;102284.19;;;14.41;47.50
62600;BME280;48671;48.922;2.346;2023-04-08T09:05:55;102286.41;;;14.25;47.37
62600;BME280;48671;48.922;2.346;2023-04-08T09:10:51;102287.47;;;14.18;48.02
62600;BME280;48671;48.922;2.346;2023-04-08T09:13:17;102294.16;;;14.28;47.92
62600;BME280;48671;48.922;2.346;2023-04-08T09:16:01;102297.91;;;14.20;48.25
62600;BME280;48671;48.922;2.346;2023-04-08T09:18:31;102288.47;;;14.14;47.76
62600;BME280;48671;48.922;2.346;2023-04-08T09:21:02;102283.38;;;14.10;48.54
62600;BME280;48671;48.922;2.346;2023-04-08T09:23:43;102288.41;;;14.16;48.62
62600;BME280;48671;48.922;2.346;2023-04-08T09:26:14;102282.38;;;14.14;48.40
62600;BME280;48671;48.922;2.346;2023-04-08T09:28:56;102290.06;;;14.20;48.59
62600;BME280;48671;48.922;2.346;2023-04-08T09:31:23;102288.06;;;14.28;48.36
62600;BME280;48671;48.922;2.346;2023-04-08T09:33:51;102281.31;;;14.21;48.42
62600;BME280;48671;48.922;2.346;2023-04-08T09:36:18;102277.59;;;14.28;48.89
62600;BME280;48671;48.922;2.346;2023-04-08T09:38:44;102280.63;;;14.44;47.64
62600;BME280;48671;48.922;2.346;2023-04-08T09:41:13;102286.44;;;14.55;48.71
62600;BME280;48671;48.922;2.346;2023-04-08T09:43:46;102277.44;;;14.64;48.04
62600;BME280;48671;48.922;2.346;2023-04-08T09:46:15;102289.06;;;14.83;47.38
62600;BME280;48671;48.922;2.346;2023-04-08T09:48:48;102286.25;;;14.89;47.49
62600;BME280;48671;48.922;2.346;2023-04-08T09:51:15;102292.47;;;15.13;47.60
62600;BME280;48671;48.922;2.346;2023-04-08T09:53:46;102275.84;;;15.14;46.96
62600;BME280;48671;48.922;2.346;2023-04-08T09:56:13;102278.66;;;15.35;46.68
62600;BME280;48671;48.922;2.346;2023-04-08T09:59:08;102277.31;;;15.48;46.94
62600;BME280;48671;48.922;2.346;2023-04-08T10:01:38;102293.78;;;15.53;46.06
62600;BME280;48671;48.922;2.346;2023-04-08T10:04:14;102290.38;;;15.50;44.97
62600;BME280;48671;48.922;2.346;2023-04-08T10:06:41;102286.22;;;15.44;46.52
62600;BME280;48671;48.922;2.346;2023-04-08T10:09:08;102293.34;;;15.40;45.65
62600;BME280;48671;48.922;2.346;2023-04-08T10:11:35;102289.88;;;15.38;46.12
62600;BME280;48671;48.922;2.346;2023-04-08T10:14:01;102291.25;;;15.50;45.81
62600;BME280;48671;48.922;2.346;2023-04-08T10:16:27;102284.88;;;15.57;43.73
62600;BME280;48671;48.922;2.346;2023-04-08T10:18:53;102286.31;;;15.66;44.71
62600;BME280;48671;48.922;2.346;2023-04-08T10:21:38;102293.00;;;15.76;44.48
62600;BME280;48671;48.922;2.346;2023-04-08T10:24:09;102290.72;;;15.90;44.07
62600;BME280;48671;48.922;2.346;2023-04-08T10:26:39;102288.63;;;16.00;43.99
62600;BME280;48671;48.922;2.346;2023-04-08T10:31:44;102283.69;;;16.16;43.61
62600;BME280;48671;48.922;2.346;2023-04-08T10:34:15;102282.19;;;16.32;43.75
62600;BME280;48671;48.922;2.346;2023-04-08T10:36:45;102271.97;;;16.48;42.90
62600;BME280;48671;48.922;2.346;2023-04-08T10:39:12;102272.28;;;16.62;42.83
62600;BME280;48671;48.922;2.346;2023-04-08T10:41:42;102272.16;;;16.66;42.52
62600;BME280;48671;48.922;2.346;2023-04-08T10:44:15;102264.78;;;16.75;43.54
62600;BME280;48671;48.922;2.346;2023-04-08T10:46:42;102264.72;;;16.99;43.39
62600;BME280;48671;48.922;2.346;2023-04-08T10:49:07;102257.19;;;17.12;42.26
62600;BME280;48671;48.922;2.346;2023-04-08T10:51:33;102259.56;;;17.18;42.78
62600;BME280;48671;48.922;2.346;2023-04-08T10:54:10;102245.22;;;17.04;40.61
62600;BME280;48671;48.922;2.346;2023-04-08T10:56:43;102246.25;;;17.00;42.13
62600;BME280;48671;48.922;2.346;2023-04-08T10:59:09;102239.94;;;17.04;41.17
62600;BME280;48671;48.922;2.346;2023-04-08T11:01:39;102247.72;;;17.07;41.34
62600;BME280;48671;48.922;2.346;2023-04-08T11:04:17;102244.81;;;17.14;42.39
62600;BME280;48671;48.922;2.346;2023-04-08T11:06:45;102239.88;;;17.26;41.63
62600;BME280;48671;48.922;2.346;2023-04-08T11:09:11;102234.50;;;17.50;40.61
62600;BME280;48671;48.922;2.346;2023-04-08T11:11:37;102234.47;;;17.70;41.21
62600;BME280;48671;48.922;2.346;2023-04-08T11:14:03;102234.25;;;17.76;40.15
62600;BME280;48671;48.922;2.346;2023-04-08T11:16:29;102230.53;;;17.81;40.94
62600;BME280;48671;48.922;2.346;2023-04-08T11:18:54;102232.91;;;17.66;38.64
62600;BME280;48671;48.922;2.346;2023-04-08T11:21:24;102235.59;;;17.65;39.76
62600;BME280;48671;48.922;2.346;2023-04-08T11:23:53;102226.34;;;17.75;40.21
62600;BME280;48671;48.922;2.346;2023-04-08T11:26:20;102230.72;;;17.96;39.73
62600;BME280;48671;48.922;2.346;2023-04-08T11:28:46;102229.25;;;18.08;38.99
62600;BME280;48671;48.922;2.346;2023-04-08T11:31:13;102224.38;;;18.00;37.76
62600;BME280;48671;48.922;2.346;2023-04-08T11:33:49;102231.34;;;18.01;38.58
62600;BME280;48671;48.922;2.346;2023-04-08T11:36:17;102225.72;;;18.09;39.01
62600;BME280;48671;48.922;2.346;2023-04-08T11:38:43;102220.03;;;18.18;38.88
62600;BME280;48671;48.922;2.346;2023-04-08T11:41:09;102210.44;;;17.98;37.96
62600;BME280;48671;48.922;2.346;2023-04-08T11:43:36;102219.38;;;17.94;38.88
62600;BME280;48671;48.922;2.346;2023-04-08T11:46:11;102217.69;;;18.12;38.74
62600;BME280;48671;48.922;2.346;2023-04-08T11:48:37;102213.84;;;18.19;38.08
62600;BME280;48671;48.922;2.346;2023-04-08T11:51:06;102213.03;;;18.17;38.24
62600;BME280;48671;48.922;2.346;2023-04-08T11:53:36;102208.06;;;18.30;38.32
62600;BME280;48671;48.922;2.346;2023-04-08T11:56:15;102207.38;;;18.44;37.89
62600;BME280;48671;48.922;2.346;2023-04-08T11:58:40;102197.31;;;18.35;37.86
62600;BME280;48671;48.922;2.346;2023-04-08T12:01:06;102212.03;;;18.39;36.55
62600;BME280;48671;48.922;2.346;2023-04-08T12:03:31;102212.88;;;18.58;37.11
62600;BME280;48671;48.922;2.346;2023-04-08T12:05:56;102205.28;;;18.69;36.92
62600;BME280;48671;48.922;2.346;2023-04-08T12:08:22;102198.66;;;18.80;36.74
62600;BME280;48671;48.922;2.346;2023-04-08T12:10:47;102195.94;;;18.99;36.80
62600;BME280;48671;48.922;2.346;2023-04-08T12:13:12;102198.13;;;19.08;36.85
62600;BME280;48671;48.922;2.346;2023-04-08T12:15:38;102194.31;;;19.31;35.96
62600;BME280;48671;48.922;2.346;2023-04-08T12:18:03;102198.63;;;19.49;36.47
62600;BME280;48671;48.922;2.346;2023-04-08T12:20:29;102186.03;;;19.54;35.81
62600;BME280;48671;48.922;2.346;2023-04-08T12:22:55;102199.56;;;19.66;35.48
62600;BME280;48671;48.922;2.346;2023-04-08T12:25:20;102203.50;;;19.57;35.74
62600;BME280;48671;48.922;2.346;2023-04-08T12:27:45;102190.34;;;19.55;35.51
62600;BME280;48671;48.922;2.346;2023-04-08T12:30:11;102185.56;;;19.63;35.63
62600;BME280;48671;48.922;2.346;2023-04-08T12:32:36;102194.63;;;19.91;35.67
62600;BME280;48671;48.922;2.346;2023-04-08T12:35:02;102187.56;;;19.76;34.28
62600;BME280;48671;48.922;2.346;2023-04-08T12:37:27;102187.78;;;19.71;35.40
62600;BME280;48671;48.922;2.346;2023-04-08T12:39:52;102185.19;;;20.03;35.63
62600;BME280;48671;48.922;2.346;2023-04-08T12:42:18;102186.38;;;20.29;34.08
62600;BME280;48671;48.922;2.346;2023-04-08T12:44:43;102187.00;;;20.34;35.36
62600;BME280;48671;48.922;2.346;2023-04-08T12:47:08;102182.59;;;20.49;34.80
62600;BME280;48671;48.922;2.346;2023-04-08T12:49:34;102183.63;;;20.46;34.19
62600;BME280;48671;48.922;2.346;2023-04-08T12:51:59;102176.75;;;20.44;32.98
62600;BME280;48671;48.922;2.346;2023-04-08T12:54:24;102189.03;;;20.45;33.86
62600;BME280;48671;48.922;2.346;2023-04-08T12:56:50;102179.97;;;20.65;34.30
62600;BME280;48671;48.922;2.346;2023-04-08T12:59:15;102175.31;;;20.84;32.35
62600;BME280;48671;48.922;2.346;2023-04-08T13:01:40;102170.19;;;20.81;33.00
62600;BME280;48671;48.922;2.346;2023-04-08T13:04:06;102178.03;;;20.83;31.62
62600;BME280;48671;48.922;2.346;2023-04-08T13:06:31;102174.81;;;20.77;32.84
62600;BME280;48671;48.922;2.346;2023-04-08T13:08:56;102168.78;;;20.60;31.66
62600;BME280;48671;48.922;2.346;2023-04-08T13:11:22;102167.75;;;20.46;31.40
62600;BME280;48671;48.922;2.346;2023-04-08T13:13:47;102161.81;;;20.58;32.11
62600;BME280;48671;48.922;2.346;2023-04-08T13:16:13;102168.75;;;20.75;31.81
62600;BME280;48671;48.922;2.346;2023-04-08T13:18:39;102158.59;;;20.84;32.96
62600;BME280;48671;48.922;2.346;2023-04-08T13:21:07;102161.09;;;21.15;32.68
62600;BME280;48671;48.922;2.346;2023-04-08T13:23:33;102158.94;;;21.22;31.98
62600;BME280;48671;48.922;2.346;2023-04-08T13:25:59;102156.09;;;21.25;32.11
62600;BME280;48671;48.922;2.346;2023-04-08T13:28:24;102149.84;;;21.12;32.41
62600;BME280;48671;48.922;2.346;2023-04-08T13:30:50;102153.81;;;21.19;32.08
62600;BME280;48671;48.922;2.346;2023-04-08T13:33:15;102149.31;;;21.35;31.80
62600;BME280;48671;48.922;2.346;2023-04-08T13:35:41;102160.28;;;21.58;32.12
62600;BME280;48671;48.922;2.346;2023-04-08T13:38:06;102159.22;;;21.89;32.33
62600;BME280;48671;48.922;2.346;2023-04-08T13:40:32;102164.94;;;22.10;31.43
62600;BME280;48671;48.922;2.346;2023-04-08T13:42:58;102158.88;;;22.22;30.32
62600;BME280;48671;48.922;2.346;2023-04-08T13:45:23;102145.22;;;22.28;30.97
62600;BME280;48671;48.922;2.346;2023-04-08T13:47:48;102149.56;;;22.29;29.99
62600;BME280;48671;48.922;2.346;2023-04-08T13:50:14;102146.41;;;22.24;30.18
62600;BME280;48671;48.922;2.346;2023-04-08T13:52:39;102144.88;;;22.20;31.29
62600;BME280;48671;48.922;2.346;2023-04-08T13:55:05;102141.50;;;22.18;30.20